ADDS METAR Data INFO
IDs: Format: Raw Decoded Include TAF

Data at: 0031 UTC 23 Oct 2017

KSCK 222355Z 33011KT 10SM CLR 24/09 A3025 RMK AO2 SLP241 T02440094 10256 20183 56017
KSCK 222255Z 33012KT 10SM CLR 26/09 A3026 RMK AO2 SLP246 T02560089
KSCK 222155Z 32014KT 10SM CLR 24/09 A3027 RMK AO2 SLP250 T02440089
KSCK 222055Z 32011KT 10SM CLR 24/08 A3030 RMK AO2 SLP258 T02390078 58019
KSCK 221955Z 32011KT 10SM CLR 22/08 A3032 RMK AO2 SLP266 T02220083
KSCK 221855Z 31009KT 10SM CLR 21/08 A3034 RMK AO2 SLP274 T02110083
KSCK 221755Z 28007KT 10SM CLR 18/08 A3035 RMK AO2 SLP278 T01780083 10183 20056 50006
KSCK 221655Z 28004KT 10SM CLR 16/09 A3036 RMK AO2 SLP281 T01560089
KSCK 221555Z 33004KT 10SM CLR 13/09 A3035 RMK AO2 SLP278 T01330094
KSCK 221455Z 33004KT 8SM CLR 08/07 A3034 RMK AO2 SLP272 T00780072 53007
KSCK 221429Z 30003KT 7SM CLR 07/07 A3032 RMK AO2 T00670067
KSCK 221422Z 00000KT 2SM BR CLR 07/06 A3032 RMK AO2 T00720061
KSCK 221411Z 30003KT 3/4SM BR CLR 06/06 A3032 RMK AO2 T00560056 RVRNO
KSCK 221355Z 33003KT 1/2SM FG VV002 06/06 A3032 RMK AO2 SLP267 T00610061 RVRNO
KSCK 221330Z AUTO 00000KT 3/4SM BR VV002 08/07 A3031 RMK AO2 T00780067 RVRNO
KSCK 221328Z AUTO 00000KT 1 1/2SM BR SCT002 08/07 A3031 RMK AO2 T00780067
KSCK 221255Z AUTO 00000KT 10SM FEW002 08/07 A3031 RMK AO2 SLP263 T00780067
KSCK 221233Z AUTO 00000KT 10SM FEW002 08/07 A3031 RMK AO2 T00780072
KSCK 221155Z AUTO 00000KT 10SM CLR 08/07 A3032 RMK AO2 SLP265 T00780072 10128 20078 50001
KSCK 221055Z AUTO 00000KT 10SM CLR 08/08 A3032 RMK AO2 SLP267 T00830078
KSCK 220955Z AUTO 00000KT 10SM CLR 09/09 A3032 RMK AO2 SLP267 T00940089
KSCK 220855Z AUTO 00000KT 10SM CLR 10/08 A3031 RMK AO2 SLP264 T01000083 53011
KSCK 220755Z AUTO 34003KT 10SM CLR 11/08 A3029 RMK AO2 SLP258 T01060083 402280061
KSCK 220655Z AUTO 25003KT 10SM CLR 12/09 A3028 RMK AO2 SLP254 T01170089
KSCK 220555Z AUTO 29005KT 10SM CLR 12/09 A3028 RMK AO2 SLP253 T01220089 10217 20122 51014
KSCK 220455Z AUTO 29004KT 10SM CLR 14/09 A3027 RMK AO2 SLP251 T01390089
KSCK 220355Z 31008KT 10SM CLR 17/09 A3025 RMK AO2 SLP244 T01670094
KSCK 220255Z 33007KT 10SM CLR 16/07 A3024 RMK AO2 SLP239 T01610067 53012
KSCK 220155Z 31007KT 10SM CLR 17/07 A3022 RMK AO2 SLP232 T01720067
KSCK 220055Z 29010KT 10SM CLR 20/07 A3021 RMK AO2 SLP229 T02000067
KSCK 212355Z 30013KT 10SM CLR 22/05 A3020 RMK AO2 SLP227 T02170050 10228 20172 55005
KSCK 212255Z 30012KT 10SM CLR 22/04 A3020 RMK AO2 SLP226 T02170044
KSCK 212155Z 30011KT 10SM CLR 22/06 A3020 RMK AO2 SLP227 T02220056
KSCK 212055Z 30010G15KT 10SM CLR 22/07 A3022 RMK AO2 SLP233 T02170067 58009
KSCK 211955Z 31008KT 10SM CLR 20/07 A3024 RMK AO2 SLP239 T02000072
KSCK 211855Z 33006KT 10SM CLR 19/08 A3025 RMK AO2 SLP242 T01890078
KSCK 211755Z 33007KT 10SM CLR 17/08 A3025 RMK AO2 SLP242 T01670083 10167 20061 50008
KSCK 211655Z 31008KT 10SM CLR 14/08 A3025 RMK AO2 SLP243 T01440083
KSCK 211555Z 31009KT 10SM CLR 12/08 A3024 RMK AO2 SLP238 T01170083
KSCK 211455Z 30006KT 10SM CLR 08/08 A3022 RMK AO2 SLP234 T00830078 51015
KSCK 211355Z 28004KT 10SM CLR 07/06 A3021 RMK AO2 SLP230 T00720056
KSCK 211255Z AUTO 00000KT 10SM CLR 07/06 A3019 RMK AO2 SLP223 T00670056